Inicio METAR Ruta Wind Satelite

Informe Meteorológico

Fecha: 2021/09/21 16:05:21 Local
2021.09.21 21:05 UTC


Operación:
SKGY 212100Z VRB04KT 9000 VCSH BKN032 BKN085 16/12 Q1024 RMK A3026 =